Bricelyn, MN (56014)

9:03 PM CST on November 23, 2014 (GMT -0600)
Clark Township - Faribault County | Change Station
CLOSE
Current Station
Personal Weather Station
Location: Wells, MN
Elevation: 1158 ft
Nearby Weather Stations
Active Advisory: Wind Advisory

Elev 1158 ft 43.71 °N, 93.71 °W | Updated 6 seconds ago

Overcast
Overcast
34.7 °F
Feels Like 35 °F
N
0.0
Wind Variable Wind from North
Gusts 0.0 mph

Today
High -- | Low -- °F
--% Chance of Precip.
Yesterday
High -- | Low -- °F
Precip. -- in
7:19 AM 4:43 PM
Waxing Crescent, 3% visible
Pressure 29.35 in
Visibility 10.0 miles
Clouds Mostly Cloudy 1300 ft
Overcast 1900 ft
Windchill 35 °F
Dew Point 25 °F
Humidity 68%
Rainfall 0.00 in
Snow Depth Not available.
UV 0 out of 12
Pollen .10 out of 12
Air Quality Not available.
Flu Activity Not available.
METAR KAEL 240253Z AUTO 31014G24KT 10SM BKN013 OVC019 03/01 A2935 RMK AO2

More Conditions Fewer Conditions

Pressure 29.35 in
Visibility 10.0 miles
Clouds Mostly Cloudy 1300 ft
Overcast 1900 ft
Windchill 35 °F
Dew Point 25 °F
Humidity 68%
Rainfall 0.00 in
Snow Depth Not available.
UV 0 out of 12
Pollen .10 out of 12
Air Quality Not available.
Flu Activity Not available.
METAR KAEL 240253Z AUTO 31014G24KT 10SM BKN013 OVC019 03/01 A2935 RMK AO2

More Conditions Fewer Conditions

Nowcast | as of 8:00 PM CST on November 23, 2014

A band of light rain...drizzle and fog is falling across parts of south central...southeast and east central Minnesota into western Wisconsin. The leading edge of rain is located from Duluth south along I-35 to the Twin City Metro area...then south towards Le Sueur...Faribault... Mankato...Owatonna...Fairmont and Albert Lea. The trailing edge is moving towards western Wisconsin between now and midnight. Light accumulations of a few hundreths up to a tenth inch of rain are expected.

×

10-Day Weather Forecast

Almanac

Astronomy

Nov. 23, 2014 Rise Set
Actual Time
Civil Twilight
Nautical Twilight
Astronomical Twilight
Moon
Length of Visible Light
Length of Day
Tomorrow will be .
, % of the Moon is Illuminated

Today's Extremes

State Highs State Lows

Community

WunderPhotos

Upload Photos

1,773,257 photos uploaded!

WunderBlogs® & News

Nearby

Air Quality

  Air Quality AQ Index Pollutant
Not available.

Snow Depth

Station Depth Elevation

Earthquake Activity

City Distance Mag. Time & Date
Minimum magnitude displayed is 2.5.

Coastal Water Temperatures

Place Temperature

Nearby Weather Stations